Time;durP1;ratioP1;P1;durP2;ratioP2;P2;SDS_P1;SDS_P2;PMS_P1;PMS_P2;Temp;Humidity;BMP_temperature;BMP_pressure;BME280_temperature;BME280_humidity;BME280_pressure;Samples;Min_cycle;Max_cycle;Signal;HPM_P1;HPM_P2
2023/04/17 00:00:26;;;;;;;41.10;24.40;;;;;;;4.56;86.21;99146.65;270783;1268;25430;-88
2023/04/17 00:07:40;;;;;;;40.50;24.80;;;;;;;4.40;86.07;99157.52;270578;1269;22539;-87
2023/04/17 00:13:42;;;;;;;42.90;25.60;;;;;;;4.23;86.63;99161.37;270948;1266;22679;-87
2023/04/17 00:20:09;;;;;;;38.40;22.80;;;;;;;4.17;86.78;99158.58;271311;1267;22247;-86
2023/04/17 00:26:15;;;;;;;48.10;28.10;;;;;;;4.02;86.67;99160.33;271293;1267;23355;-88
2023/04/17 00:32:18;;;;;;;48.90;25.40;;;;;;;3.94;87.30;99155.34;270849;1267;24391;-86
2023/04/17 00:38:20;;;;;;;52.20;29.10;;;;;;;3.83;87.09;99155.15;270948;1268;22546;-87
2023/04/17 00:44:23;;;;;;;41.40;26.20;;;;;;;3.72;87.61;99156.31;272114;1268;22523;-88
2023/04/17 00:50:29;;;;;;;44.00;24.40;;;;;;;3.72;88.39;99154.69;270547;1267;22531;-88
2023/04/17 00:56:31;;;;;;;34.30;21.30;;;;;;;3.71;88.23;99156.73;270705;1257;22604;-88
2023/04/17 01:02:34;;;;;;;40.10;24.00;;;;;;;3.63;88.23;99159.61;270580;1267;23669;-86
2023/04/17 01:08:41;;;;;;;40.70;22.70;;;;;;;3.55;88.32;99158.02;271525;1267;23380;-87
2023/04/17 01:14:44;;;;;;;44.40;25.00;;;;;;;3.45;88.56;99156.82;271602;1267;25404;-89
2023/04/17 01:20:52;;;;;;;39.60;22.50;;;;;;;3.36;88.77;99158.37;271437;1266;25310;-90
2023/04/17 01:27:21;;;;;;;34.30;19.10;;;;;;;3.26;88.73;99157.64;271262;1268;22505;-87
2023/04/17 01:33:24;;;;;;;40.40;22.60;;;;;;;3.22;89.40;99154.19;270985;1267;22595;-87
2023/04/17 01:39:27;;;;;;;36.60;21.00;;;;;;;3.27;89.92;99145.58;271204;1267;22582;-87
2023/04/17 01:45:31;;;;;;;38.80;22.50;;;;;;;3.30;90.26;99137.89;271637;1260;22559;-88
2023/04/17 01:51:53;;;;;;;42.50;24.00;;;;;;;3.36;90.43;99139.91;272471;1261;22188;-87
2023/04/17 01:57:55;;;;;;;46.10;25.30;;;;;;;3.29;90.46;99141.17;272417;1267;22520;-87
2023/04/17 02:04:24;;;;;;;;;;;;;;;;;;;;;
2023/04/17 02:10:44;;;;;;;57.30;31.60;;;;;;;3.36;91.58;99146.79;271855;1261;22544;-87
2023/04/17 02:17:26;;;;;;;51.90;28.80;;;;;;;3.43;91.79;99156.36;272210;1267;22490;-87
2023/04/17 02:23:36;;;;;;;54.30;28.50;;;;;;;3.45;91.77;99157.30;271345;1262;22535;-86
2023/04/17 02:29:40;;;;;;;42.80;25.20;;;;;;;3.48;92.00;99167.10;271971;1267;25332;-87
2023/04/17 02:36:06;;;;;;;45.70;25.40;;;;;;;3.58;92.83;99167.77;271445;1259;25384;-88
2023/04/17 02:42:37;;;;;;;52.10;27.50;;;;;;;3.71;93.37;99162.00;270958;1260;23572;-87
2023/04/17 02:49:03;;;;;;;46.20;27.10;;;;;;;3.86;93.98;99158.45;272251;1267;22489;-88
2023/04/17 02:55:08;;;;;;;56.30;31.70;;;;;;;4.07;94.38;99162.50;272441;1267;22646;-88
2023/04/17 03:01:32;;;;;;;60.90;34.60;;;;;;;4.21;94.35;99165.09;270879;1267;24215;-87
2023/04/17 03:07:35;;;;;;;58.50;31.90;;;;;;;4.33;94.57;99167.08;271093;1266;22623;-86
2023/04/17 03:13:39;;;;;;;55.60;30.80;;;;;;;4.46;94.92;99171.94;271156;1267;22560;-86
2023/04/17 03:20:06;;;;;;;49.20;28.20;;;;;;;4.58;95.36;99167.81;271059;1262;22596;-87
2023/04/17 03:26:09;;;;;;;45.30;26.20;;;;;;;4.66;95.39;99169.05;272312;1269;22621;-86
2023/04/17 03:32:12;;;;;;;45.40;26.60;;;;;;;4.73;95.35;99171.16;271836;1257;22639;-88
2023/04/17 03:38:43;;;;;;;46.70;27.20;;;;;;;4.78;95.24;99177.87;271693;1267;22553;-87
2023/04/17 03:44:55;;;;;;;60.70;38.20;;;;;;;4.87;95.49;99177.81;270234;1268;22549;-87
2023/04/17 03:50:58;;;;;;;52.40;31.00;;;;;;;4.97;95.70;99184.52;273310;1266;22562;-86
2023/04/17 03:57:16;;;;;;;54.90;31.00;;;;;;;5.08;95.90;99186.77;273278;1267;22427;-88
2023/04/17 04:03:24;;;;;;;47.90;27.00;;;;;;;5.19;96.08;99191.02;272863;1269;22308;-87
2023/04/17 04:09:27;;;;;;;49.10;29.50;;;;;;;5.27;96.04;99199.14;271170;1267;22804;-86
2023/04/17 04:15:30;;;;;;;43.30;27.10;;;;;;;5.33;96.03;99201.98;270427;1258;22574;-88
2023/04/17 04:22:12;;;;;;;49.00;29.50;;;;;;;5.40;96.41;99201.77;271431;1267;24993;-89
2023/04/17 04:28:22;;;;;;;47.60;29.30;;;;;;;5.48;96.53;99203.13;271566;1267;22560;-87
2023/04/17 04:34:35;;;;;;;43.50;28.50;;;;;;;5.56;96.62;99204.96;270573;1267;22552;-86
2023/04/17 04:40:37;;;;;;;46.00;28.10;;;;;;;5.64;96.47;99210.74;269992;1267;22520;-88
2023/04/17 04:47:01;;;;;;;48.70;30.50;;;;;;;5.73;96.65;99218.02;269778;1267;22602;-87
2023/04/17 04:54:09;;;;;;;49.90;31.40;;;;;;;5.82;97.18;99216.65;269005;1269;24450;-87
2023/04/17 05:00:18;;;;;;;47.30;30.10;;;;;;;5.92;97.22;99216.90;270389;1267;22590;-87
2023/04/17 05:06:26;;;;;;;46.10;31.40;;;;;;;6.01;97.65;99218.08;270553;1267;22509;-87
2023/04/17 05:12:48;;;;;;;50.20;32.20;;;;;;;6.11;97.73;99215.36;270987;1264;22559;-87
2023/04/17 05:19:12;;;;;;;62.90;37.30;;;;;;;6.23;97.97;99220.35;270454;1268;24727;-87
2023/04/17 05:25:39;;;;;;;58.30;34.40;;;;;;;6.35;98.24;99216.50;272304;1268;23158;-88
2023/04/17 05:32:13;;;;;;;54.40;32.80;;;;;;;6.49;98.15;99219.34;272405;1267;22648;-88
2023/04/17 05:39:01;;;;;;;44.50;27.10;;;;;;;6.63;97.53;99223.11;271303;1268;266189;-87
2023/04/17 05:45:48;;;;;;;49.00;29.50;;;;;;;6.75;97.30;99223.86;270567;1267;22536;-88
2023/04/17 05:51:56;;;;;;;48.10;27.80;;;;;;;6.92;97.54;99231.23;270508;1267;22616;-87
2023/04/17 05:58:01;;;;;;;52.80;26.50;;;;;;;7.10;97.73;99232.67;270180;1267;26744;-87
2023/04/17 06:04:24;;;;;;;56.60;31.90;;;;;;;7.25;97.36;99230.99;270283;1267;22535;-88
2023/04/17 06:10:28;;;;;;;59.70;34.70;;;;;;;7.41;97.29;99237.52;270371;1267;22541;-88
2023/04/17 06:16:30;;;;;;;54.90;33.30;;;;;;;7.50;96.34;99242.80;270951;1267;27585;-89
2023/04/17 06:22:43;;;;;;;62.80;37.60;;;;;;;7.56;96.67;99248.27;271701;1267;22547;-87
2023/04/17 06:29:03;;;;;;;57.20;33.20;;;;;;;7.71;96.57;99246.34;273616;1266;22265;-86
2023/04/17 06:35:28;;;;;;;55.80;31.10;;;;;;;7.84;96.92;99250.73;272767;1268;22559;-87
2023/04/17 06:42:02;;;;;;;49.60;30.10;;;;;;;8.20;97.99;99247.03;271993;1267;22556;-87
2023/04/17 06:48:08;;;;;;;58.50;33.30;;;;;;;8.64;97.73;99251.52;270952;1266;22565;-87
2023/04/17 06:54:11;;;;;;;53.30;31.30;;;;;;;8.83;97.32;99257.03;272162;1266;22604;-88
2023/04/17 07:00:14;;;;;;;47.90;28.70;;;;;;;9.00;97.25;99263.10;271669;1267;22858;-87
2023/04/17 07:06:22;;;;;;;42.70;26.90;;;;;;;9.13;97.34;99266.80;271891;1262;22475;-89
2023/04/17 07:12:35;;;;;;;40.30;24.70;;;;;;;9.24;97.29;99269.61;272055;1266;25440;-87
2023/04/17 07:19:11;;;;;;;38.40;25.40;;;;;;;9.34;97.42;99263.98;272139;1267;22532;-85
2023/04/17 07:25:20;;;;;;;35.30;25.00;;;;;;;9.55;97.90;99260.23;271827;1262;22519;-87
2023/04/17 07:31:39;;;;;;;41.20;25.70;;;;;;;9.82;97.95;99265.44;272414;1267;22394;-87
2023/04/17 07:38:55;;;;;;;42.90;26.40;;;;;;;9.98;97.57;99272.36;272540;1267;24179;-88
2023/04/17 07:45:57;;;;;;;37.50;22.90;;;;;;;10.06;97.56;99271.73;273043;1267;22544;-86
2023/04/17 07:53:11;;;;;;;36.60;23.50;;;;;;;10.19;97.56;99273.48;272088;1266;22348;-89
2023/04/17 07:59:45;;;;;;;39.10;24.30;;;;;;;10.30;97.39;99271.23;272879;1267;22425;-88
2023/04/17 08:06:09;;;;;;;40.20;24.00;;;;;;;10.56;98.16;99274.55;272959;1266;22338;-89
2023/04/17 08:12:51;;;;;;;38.10;23.90;;;;;;;11.01;97.91;99273.01;272456;1256;22562;-88
2023/04/17 08:19:19;;;;;;;38.40;24.70;;;;;;;11.20;96.77;99271.70;272270;1256;22558;-88
2023/04/17 08:25:28;;;;;;;38.50;23.90;;;;;;;11.23;96.43;99273.23;271924;1267;22572;-90
2023/04/17 08:31:55;;;;;;;33.10;22.50;;;;;;;11.19;96.21;99275.44;272043;1267;22390;-91
2023/04/17 08:37:58;;;;;;;36.90;22.90;;;;;;;11.07;96.25;99278.71;272143;1268;22226;-88
2023/04/17 08:44:05;;;;;;;37.30;22.00;;;;;;;10.85;96.64;99277.02;270714;1257;22466;-90
2023/04/17 08:50:08;;;;;;;34.30;21.90;;;;;;;10.76;97.65;99284.23;271625;1258;23108;-89
2023/04/17 08:56:10;;;;;;;39.00;24.50;;;;;;;10.74;98.38;99290.08;270613;1268;23565;-88
2023/04/17 09:02:40;;;;;;;44.00;25.20;;;;;;;10.72;98.51;99292.94;270412;1267;23824;-90
2023/04/17 09:09:08;;;;;;;45.00;25.20;;;;;;;10.62;98.32;99295.98;270867;1270;23284;-90
2023/04/17 09:15:26;;;;;;;45.50;27.40;;;;;;;10.42;98.34;99297.39;272819;1268;22422;-89
2023/04/17 09:22:18;;;;;;;44.10;27.20;;;;;;;10.28;98.94;99292.77;273258;1271;22353;-89
2023/04/17 09:28:28;;;;;;;44.90;29.30;;;;;;;10.29;99.69;99292.80;273496;1272;22318;-90
2023/04/17 09:34:40;;;;;;;40.30;26.50;;;;;;;10.30;99.93;99294.14;272382;1273;22587;-87
2023/04/17 09:41:31;;;;;;;43.80;27.10;;;;;;;10.34;100.00;99295.14;272194;1260;24372;-89
2023/04/17 09:47:43;;;;;;;44.90;28.90;;;;;;;10.38;100.00;99297.16;271474;1267;22982;-90
2023/04/17 09:54:15;;;;;;;44.50;27.40;;;;;;;10.44;100.00;99294.37;271028;1269;23364;-89
2023/04/17 10:00:35;;;;;;;46.50;27.40;;;;;;;10.51;100.00;99295.11;270277;1268;22570;-89
2023/04/17 10:06:38;;;;;;;48.20;31.00;;;;;;;10.51;100.00;99301.52;271064;1258;22559;-89
2023/04/17 10:12:49;;;;;;;48.10;29.70;;;;;;;10.47;100.00;99301.77;271235;1267;22604;-91
2023/04/17 10:19:30;;;;;;;44.70;29.30;;;;;;;10.54;100.00;99298.06;271317;1266;22607;-90
2023/04/17 10:25:47;;;;;;;45.30;30.50;;;;;;;10.80;100.00;99289.21;272411;1268;22531;-89
2023/04/17 10:32:10;;;;;;;43.10;28.40;;;;;;;11.02;100.00;99284.53;271914;1268;23494;-92
2023/04/17 10:38:49;;;;;;;44.30;29.30;;;;;;;11.21;100.00;99282.90;272561;1269;23227;-88
2023/04/17 10:45:18;;;;;;;36.40;26.30;;;;;;;11.43;100.00;99279.73;272403;1268;22334;-88
2023/04/17 10:51:26;;;;;;;29.70;21.30;;;;;;;11.62;100.00;99272.45;272005;1268;22711;-88
2023/04/17 10:58:05;;;;;;;27.50;19.20;;;;;;;11.67;100.00;99270.25;272274;1268;23210;-89
2023/04/17 11:05:05;;;;;;;28.00;21.10;;;;;;;11.66;100.00;99268.22;272010;1266;23890;-91
2023/04/17 11:11:17;;;;;;;23.20;17.00;;;;;;;11.60;100.00;99268.05;271798;1267;22286;-89
2023/04/17 11:18:09;;;;;;;24.10;17.10;;;;;;;11.57;100.00;99271.29;271151;1258;24190;-91
2023/04/17 11:24:57;;;;;;;18.50;12.90;;;;;;;11.61;100.00;99274.40;272308;1264;22120;-92
2023/04/17 11:30:59;;;;;;;17.80;13.60;;;;;;;11.60;100.00;99277.04;271735;1271;22735;-90
2023/04/17 11:37:06;;;;;;;19.70;12.50;;;;;;;11.65;100.00;99280.89;272769;1267;22400;-90
2023/04/17 11:43:55;;;;;;;17.40;12.00;;;;;;;11.61;100.00;99286.63;271192;1267;25250;-90
2023/04/17 11:50:05;;;;;;;18.20;12.10;;;;;;;11.46;100.00;99289.26;271744;1267;23070;-91
2023/04/17 11:56:28;;;;;;;20.90;14.90;;;;;;;11.38;100.00;99285.70;272373;1270;22702;-89
2023/04/17 12:02:35;;;;;;;16.00;10.80;;;;;;;11.38;100.00;99283.90;271449;1267;22260;-89
2023/04/17 12:10:02;;;;;;;;;;;;;;;;;;;;;
2023/04/17 12:16:11;;;;;;;14.00;9.50;;;;;;;11.36;100.00;99283.56;271769;1268;22964;-90
2023/04/17 12:22:14;;;;;;;14.00;8.90;;;;;;;11.32;100.00;99282.02;271534;1270;22523;-90
2023/04/17 12:28:36;;;;;;;14.60;10.40;;;;;;;11.30;100.00;99278.17;272693;1267;22856;-92
2023/04/17 12:35:05;;;;;;;19.80;10.60;;;;;;;11.43;100.00;99276.61;270941;1260;22905;-89
2023/04/17 12:41:11;;;;;;;16.50;11.00;;;;;;;11.48;100.00;99276.13;270834;1267;22535;-91
2023/04/17 12:47:34;;;;;;;19.80;11.70;;;;;;;11.32;100.00;99272.08;270627;1271;22194;-93
2023/04/17 12:53:49;;;;;;;17.50;10.50;;;;;;;11.14;100.00;99275.79;272149;1267;22501;-92
2023/04/17 13:00:47;;;;;;;;;;;;;;;;;;;;;
2023/04/17 13:07:42;;;;;;;17.70;12.20;;;;;;;10.88;100.00;99275.02;272457;1269;22551;-91
2023/04/17 13:14:18;;;;;;;18.40;11.60;;;;;;;10.92;100.00;99275.06;272736;1267;22541;-90
2023/04/17 13:21:17;;;;;;;18.50;12.70;;;;;;;10.85;100.00;99266.61;272010;1267;23802;-91
2023/04/17 13:28:34;;;;;;;22.50;15.50;;;;;;;10.82;100.00;99269.63;271590;1269;22545;-92
2023/04/17 13:35:33;;;;;;;20.20;12.70;;;;;;;10.80;100.00;99267.48;271482;1270;22497;-92
2023/04/17 13:42:28;;;;;;;20.30;12.70;;;;;;;10.73;100.00;99266.59;272566;1270;22786;-91
2023/04/17 13:49:26;;;;;;;19.60;12.70;;;;;;;10.63;100.00;99268.40;271974;1269;22526;-90
2023/04/17 13:56:09;;;;;;;17.90;11.30;;;;;;;10.60;100.00;99263.73;271687;1273;22581;-91
2023/04/17 14:02:11;;;;;;;18.50;11.00;;;;;;;10.62;100.00;99268.23;271521;1263;22231;-89
2023/04/17 14:08:46;;;;;;;18.20;11.00;;;;;;;10.67;100.00;99263.77;271388;1270;22523;-91
2023/04/17 14:15:20;;;;;;;17.90;11.40;;;;;;;10.75;100.00;99260.05;271492;1271;22739;-90
2023/04/17 14:22:00;;;;;;;13.30;9.00;;;;;;;10.84;100.00;99258.39;271219;1271;25889;-93
2023/04/17 14:28:43;;;;;;;21.90;7.80;;;;;;;10.78;100.00;99257.36;272182;1272;22531;-91
2023/04/17 14:43:33;;;;;;;12.40;8.40;;;;;;;10.63;100.00;99252.21;271769;1269;23758;-93
2023/04/17 14:49:38;;;;;;;12.10;6.80;;;;;;;10.57;100.00;99249.61;271281;1267;22693;-92
2023/04/17 15:04:06;;;;;;;13.90;8.40;;;;;;;10.45;100.00;99250.13;271865;1267;24036;-92
2023/04/17 15:11:04;;;;;;;15.80;9.40;;;;;;;10.39;100.00;99250.13;272110;1266;22318;-91
2023/04/17 15:17:30;;;;;;;17.80;10.50;;;;;;;10.32;100.00;99246.41;272131;1268;22531;-92
2023/04/17 15:32:01;;;;;;;15.40;9.80;;;;;;;10.12;100.00;99246.54;271442;1273;22532;-93
2023/04/17 15:38:09;;;;;;;;;;;;;;;10.04;100.00;99248.95;270837;1273;22594;-90
2023/04/17 15:53:03;;;;;;;10.60;6.40;;;;;;;9.99;100.00;99250.19;271392;1272;22407;-91
2023/04/17 15:59:58;;;;;;;9.50;6.10;;;;;;;9.95;100.00;99249.50;272481;1270;23074;-90
2023/04/17 16:06:04;;;;;;;12.40;8.50;;;;;;;9.94;100.00;99246.13;272982;1269;22334;-90
2023/04/17 16:12:37;;;;;;;16.50;9.10;;;;;;;9.92;100.00;99245.31;272999;1269;22357;-87
2023/04/17 16:19:04;;;;;;;20.00;10.70;;;;;;;9.91;100.00;99249.05;272325;1258;22327;-89
2023/04/17 16:25:27;;;;;;;16.10;9.60;;;;;;;9.89;100.00;99249.16;272620;1270;22332;-90
2023/04/17 16:31:33;;;;;;;14.50;9.20;;;;;;;9.87;100.00;99251.15;272879;1267;23596;-91
2023/04/17 16:38:09;;;;;;;11.90;7.70;;;;;;;9.84;100.00;99256.33;273394;1267;22564;-89
2023/04/17 16:44:41;;;;;;;;;;;;;;;;;;;;;
2023/04/17 16:51:33;;;;;;;8.40;4.80;;;;;;;9.79;100.00;99267.48;273327;1267;22523;-91
2023/04/17 16:58:05;;;;;;;7.90;5.20;;;;;;;9.77;100.00;99271.98;273126;1267;22370;-91
2023/04/17 17:04:10;;;;;;;8.60;4.40;;;;;;;9.76;100.00;99274.94;273266;1267;22331;-89
2023/04/17 17:10:20;;;;;;;8.60;4.50;;;;;;;9.75;100.00;99277.80;273168;1267;22396;-90
2023/04/17 17:16:52;;;;;;;7.00;4.60;;;;;;;9.72;100.00;99278.60;273226;1267;22785;-93
2023/04/17 17:23:37;;;;;;;6.00;3.60;;;;;;;9.68;100.00;99282.20;273291;1267;22378;-91
2023/04/17 17:29:38;;;;;;;5.80;3.60;;;;;;;9.62;100.00;99284.04;273340;1267;22349;-91
2023/04/17 17:35:42;;;;;;;6.30;4.10;;;;;;;9.58;100.00;99287.80;273368;1267;22184;-92
2023/04/17 17:42:23;;;;;;;8.00;4.20;;;;;;;9.56;100.00;99286.98;271672;1267;2080533;-89
2023/04/17 17:48:41;;;;;;;7.30;4.00;;;;;;;9.51;100.00;99293.83;273301;1267;22541;-90
2023/04/17 17:55:14;;;;;;;6.30;3.90;;;;;;;9.50;100.00;99297.55;273289;1267;22478;-88
2023/04/17 18:01:40;;;;;;;6.10;3.80;;;;;;;9.47;100.00;99300.39;273078;1267;22322;-89
2023/04/17 18:08:02;;;;;;;;;;;;;;;;;;;;;
2023/04/17 18:14:41;;;;;;;6.00;4.10;;;;;;;9.39;100.00;99315.21;273184;1267;22348;-89
2023/04/17 18:20:48;;;;;;;6.30;4.50;;;;;;;9.36;100.00;99316.78;272978;1267;22860;-90
2023/04/17 18:27:24;;;;;;;9.10;5.60;;;;;;;9.32;100.00;99323.94;272148;1272;22348;-90
2023/04/17 18:34:22;;;;;;;6.30;4.60;;;;;;;9.28;100.00;99326.68;272128;1272;23604;-90
2023/04/17 18:40:24;;;;;;;9.10;5.40;;;;;;;9.25;100.00;99324.83;272171;1272;23238;-90
2023/04/17 18:46:30;;;;;;;7.20;4.60;;;;;;;9.24;100.00;99323.92;272086;1272;22366;-90
2023/04/17 18:53:13;;;;;;;;;;;;;;;;;;;;;
2023/04/17 19:00:08;;;;;;;15.50;9.40;;;;;;;9.18;100.00;99318.18;272306;1270;23297;-88
2023/04/17 19:06:41;;;;;;;9.90;5.50;;;;;;;9.15;100.00;99320.70;272573;1270;22267;-88
2023/04/17 19:12:57;;;;;;;7.90;5.30;;;;;;;9.14;100.00;99320.52;272276;1271;22388;-88
2023/04/17 19:19:17;;;;;;;9.30;5.90;;;;;;;9.11;100.00;99317.17;272211;1270;22341;-89
2023/04/17 19:26:28;;;;;;;11.80;5.70;;;;;;;9.08;100.00;99319.29;271581;1273;22365;-89
2023/04/17 19:32:35;;;;;;;8.10;6.10;;;;;;;9.05;100.00;99316.73;271639;1274;22368;-89
2023/04/17 19:38:49;;;;;;;8.10;6.10;;;;;;;9.03;100.00;99315.84;271746;1267;22333;-88
2023/04/17 19:45:09;;;;;;;9.40;6.80;;;;;;;9.02;100.00;99311.52;272366;1254;23837;-88
2023/04/17 19:51:30;;;;;;;9.40;6.90;;;;;;;9.01;100.00;99308.05;272704;1270;22362;-90
2023/04/17 19:57:49;;;;;;;11.10;7.90;;;;;;;8.99;100.00;99304.19;272728;1264;22448;-89
2023/04/17 20:04:15;;;;;;;11.50;7.40;;;;;;;8.97;100.00;99301.32;273122;1268;23052;-87
2023/04/17 20:11:10;;;;;;;11.50;8.00;;;;;;;8.96;100.00;99298.34;272299;1265;22414;-90
2023/04/17 20:17:49;;;;;;;10.80;8.20;;;;;;;8.93;100.00;99299.77;272532;1270;22444;-88
2023/04/17 20:23:56;;;;;;;13.30;9.00;;;;;;;8.91;100.00;99298.88;272328;1272;22432;-86
2023/04/17 20:30:40;;;;;;;12.10;9.00;;;;;;;8.89;100.00;99299.76;272538;1272;22357;-88
2023/04/17 20:37:00;;;;;;;11.50;8.20;;;;;;;8.89;100.00;99303.27;272352;1270;22324;-87
2023/04/17 20:43:26;;;;;;;15.50;9.50;;;;;;;8.87;100.00;99298.31;272893;1262;23588;-89
2023/04/17 20:49:37;;;;;;;17.20;9.90;;;;;;;8.85;100.00;99296.86;273271;1267;23811;-88
2023/04/17 20:56:03;;;;;;;14.80;10.30;;;;;;;8.84;100.00;99296.42;273168;1267;23456;-90
2023/04/17 21:02:10;;;;;;;13.60;10.30;;;;;;;8.81;100.00;99296.21;273159;1267;23105;-87
2023/04/17 21:08:47;;;;;;;13.70;9.80;;;;;;;8.79;100.00;99298.89;273316;1267;23108;-89
2023/04/17 21:14:58;;;;;;;16.60;11.10;;;;;;;8.78;100.00;99301.13;273603;1267;22233;-88
2023/04/17 21:21:08;;;;;;;17.50;11.40;;;;;;;8.77;100.00;99299.72;273467;1267;22997;-89
2023/04/17 21:27:59;;;;;;;16.50;12.00;;;;;;;8.76;100.00;99301.41;273551;1267;22561;-87
2023/04/17 21:34:44;;;;;;;17.20;12.10;;;;;;;8.74;100.00;99295.98;273215;1266;22303;-90
2023/04/17 21:41:25;;;;;;;18.30;12.80;;;;;;;8.75;100.00;99294.23;273329;1267;23098;-88
2023/04/17 21:47:47;;;;;;;20.70;13.60;;;;;;;8.75;100.00;99286.42;272692;1266;22344;-86
2023/04/17 21:53:55;;;;;;;18.10;13.30;;;;;;;8.75;100.00;99286.65;273413;1267;22362;-87
2023/04/17 22:00:14;;;;;;;19.70;12.50;;;;;;;8.75;100.00;99285.48;273373;1267;22262;-89
2023/04/17 22:06:33;;;;;;;18.60;12.00;;;;;;;8.76;100.00;99286.42;273595;1266;22351;-87
2023/04/17 22:13:18;;;;;;;15.00;11.00;;;;;;;8.76;100.00;99285.41;273475;1267;22418;-86
2023/04/17 22:26:52;;;;;;;;;;;;;;;8.76;100.00;99285.19;272950;1266;22541;-88
2023/04/17 22:33:29;;;;;;;15.80;10.70;;;;;;;8.76;100.00;99284.56;273159;1264;22435;-89
2023/04/17 22:40:20;;;;;;;14.90;10.50;;;;;;;8.76;100.00;99285.82;272525;1269;22358;-90
2023/04/17 22:46:28;;;;;;;14.70;9.90;;;;;;;8.77;100.00;99284.95;272231;1269;22479;-88
2023/04/17 22:53:28;;;;;;;15.00;10.40;;;;;;;8.78;100.00;99287.57;272341;1271;22556;-90
2023/04/17 23:00:38;;;;;;;;;;;;;;;;;;;;;
2023/04/17 23:18:56;;;;;;;14.80;10.40;;;;;;;9.03;100.00;99286.77;267248;1294;549311;-90
2023/04/17 23:26:27;;;;;;;19.10;12.10;;;;;;;9.05;100.00;99283.27;270307;1282;23491;-88
2023/04/17 23:32:42;;;;;;;22.40;14.50;;;;;;;8.98;100.00;99278.35;270671;1283;22348;-88
2023/04/17 23:39:39;;;;;;;20.00;13.80;;;;;;;8.94;100.00;99272.78;270605;1283;23208;-88
2023/04/17 23:46:42;;;;;;;23.70;15.40;;;;;;;8.91;100.00;99264.08;270452;1283;22514;-88
2023/04/17 23:53:16;;;;;;;24.10;15.50;;;;;;;8.90;100.00;99265.13;270621;1283;22195;-88
2023/04/17 23:59:27;;;;;;;23.20;15.20;;;;;;;8.90;100.00;99264.30;270737;1282;23017;-90
